Terminal Aerodrome Forecast
Issued by NWS North Platte, NE

Home | Current Version | Previous Version | Graphics & Text | Print | Product List | Glossary On
Versions: 1 2 3 4 5 6 7 8 9 10 11 12 13 14 15
000
FTUS43 KLBF 010600 AAA
TAFVTN
TAF AMD
KVTN 010603Z 0106/0206 18016KT P6SM SCT200
     FM011500 28013KT P6SM SCT200
     FM011800 33014G25KT P6SM SCT200
     FM012300 01015G22KT P6SM BKN100
     FM020300 01014KT P6SM BKN100=

USA.gov is the U.S. government's official web portal to all federal, state and local government web resources and services.